Time,TemperatureF,DewpointF,PressureIn,WindDirection,WindDirectionDegrees,WindSpeedMPH,WindSpeedGustMPH,Humidity,HourlyPrecipIn,Conditions,Clouds,dailyrainin,SoftwareType,DateUTC
2013-03-05 00:00:00,59.0,57.0,29.99,South,170,9.0,10.0,91,-99.99,,,-99.99,,2013-03-05 06:00:00,
2013-03-05 00:21:00,59.0,57.0,29.99,South,170,9.0,10.0,91,-99.99,,,-99.99,,2013-03-05 06:21:00,
2013-03-05 00:31:00,59.0,57.0,29.99,South,170,9.0,10.0,91,-99.99,,,-99.99,,2013-03-05 06:31:00,
2013-03-05 00:41:00,59.0,57.0,29.99,South,170,9.0,10.0,91,-99.99,,,-99.99,,2013-03-05 06:41:00,
2013-03-05 00:52:00,59.0,57.0,29.99,South,170,9.0,10.0,91,-99.99,,,-99.99,,2013-03-05 06:52:00,
2013-03-05 01:00:00,60.0,57.0,30.00,SSW,200,5.0,8.0,88,-99.99,,,-99.99,,2013-03-05 07:00:00,
2013-03-05 01:21:00,60.0,57.0,30.00,SSW,200,5.0,8.0,88,-99.99,,,-99.99,,2013-03-05 07:21:00,
2013-03-05 01:31:00,60.0,57.0,30.00,SSW,200,5.0,8.0,88,-99.99,,,-99.99,,2013-03-05 07:31:00,
2013-03-05 01:41:00,60.0,57.0,30.00,SSW,200,5.0,8.0,88,-99.99,,,-99.99,,2013-03-05 07:41:00,
2013-03-05 01:51:00,60.0,57.0,30.00,SSW,200,5.0,8.0,88,-99.99,,,-99.99,,2013-03-05 07:51:00,
2013-03-05 02:00:00,61.0,57.0,29.99,SSW,200,7.0,10.0,86,-99.99,,,-99.99,,2013-03-05 08:00:00,
2013-03-05 02:21:00,61.0,57.0,29.99,SSW,200,7.0,10.0,86,-99.99,,,-99.99,,2013-03-05 08:21:00,
2013-03-05 02:31:00,61.0,57.0,29.99,SSW,200,7.0,10.0,86,-99.99,,,-99.99,,2013-03-05 08:31:00,
2013-03-05 02:41:00,61.0,57.0,29.99,SSW,200,7.0,10.0,86,-99.99,,,-99.99,,2013-03-05 08:41:00,
2013-03-05 02:51:00,61.0,57.0,29.99,SSW,200,7.0,10.0,86,-99.99,,,-99.99,,2013-03-05 08:51:00,
2013-03-05 03:00:00,60.0,57.0,29.98,SSW,210,7.0,10.0,89,-99.99,,,-99.99,,2013-03-05 09:00:00,
2013-03-05 03:31:00,60.0,57.0,29.98,SSW,210,7.0,10.0,89,-99.99,,,-99.99,,2013-03-05 09:31:00,
2013-03-05 03:42:00,60.0,57.0,29.98,SSW,210,7.0,10.0,89,-99.99,,,-99.99,,2013-03-05 09:42:00,
2013-03-05 03:51:00,60.0,57.0,29.98,SSW,210,7.0,10.0,89,-99.99,,,-99.99,,2013-03-05 09:51:00,
2013-03-05 04:00:00,59.0,57.0,29.99,SSW,200,3.0,7.0,92,-99.99,,,-99.99,,2013-03-05 10:00:00,
2013-03-05 04:21:00,59.0,57.0,29.99,SSW,200,3.0,7.0,92,-99.99,,,-99.99,,2013-03-05 10:21:00,
2013-03-05 04:31:00,59.0,57.0,29.99,SSW,200,3.0,7.0,92,-99.99,,,-99.99,,2013-03-05 10:31:00,
2013-03-05 04:41:00,59.0,57.0,29.99,SSW,200,3.0,7.0,92,-99.99,,,-99.99,,2013-03-05 10:41:00,
2013-03-05 04:51:00,59.0,57.0,29.99,SSW,200,3.0,7.0,92,-99.99,,,-99.99,,2013-03-05 10:51:00,
2013-03-05 05:00:00,60.0,57.0,30.00,South,190,5.0,6.0,90,-99.99,,,-99.99,,2013-03-05 11:00:00,
2013-03-05 05:21:00,60.0,57.0,30.00,South,190,5.0,6.0,90,-99.99,,,-99.99,,2013-03-05 11:21:00,
2013-03-05 05:32:00,60.0,57.0,30.00,South,190,5.0,6.0,90,-99.99,,,-99.99,,2013-03-05 11:32:00,
2013-03-05 05:41:00,60.0,57.0,30.00,South,190,5.0,6.0,90,-99.99,,,-99.99,,2013-03-05 11:41:00,
2013-03-05 05:52:00,60.0,57.0,30.00,South,190,5.0,6.0,90,-99.99,,,-99.99,,2013-03-05 11:52:00,
2013-03-05 06:00:00,60.0,58.0,30.01,SSW,210,5.0,6.0,91,-99.99,,,-99.99,,2013-03-05 12:00:00,
2013-03-05 06:22:00,60.0,58.0,30.01,SSW,210,5.0,6.0,91,-99.99,,,-99.99,,2013-03-05 12:22:00,
2013-03-05 06:32:00,60.0,58.0,30.01,SSW,210,5.0,6.0,91,-99.99,,,-99.99,,2013-03-05 12:32:00,
2013-03-05 06:41:00,60.0,58.0,30.01,SSW,210,5.0,6.0,91,-99.99,,,-99.99,,2013-03-05 12:41:00,
2013-03-05 06:52:00,60.0,58.0,30.01,SSW,210,5.0,6.0,91,-99.99,,,-99.99,,2013-03-05 12:52:00,
2013-03-05 07:00:00,60.0,58.0,30.01,WSW,240,2.0,5.0,94,-99.99,,,-99.99,,2013-03-05 13:00:00,
2013-03-05 07:21:00,60.0,58.0,30.01,WSW,240,2.0,5.0,94,-99.99,,,-99.99,,2013-03-05 13:21:00,
2013-03-05 07:31:00,60.0,58.0,30.01,WSW,240,2.0,5.0,94,-99.99,,,-99.99,,2013-03-05 13:31:00,
2013-03-05 07:41:00,60.0,58.0,30.01,WSW,240,2.0,5.0,94,-99.99,,,-99.99,,2013-03-05 13:41:00,
2013-03-05 07:51:00,60.0,58.0,30.01,WSW,240,2.0,5.0,94,-99.99,,,-99.99,,2013-03-05 13:51:00,
2013-03-05 08:00:00,60.0,58.0,30.01,South,190,5.0,6.0,96,-99.99,,,-99.99,,2013-03-05 14:00:00,
2013-03-05 08:21:00,60.0,58.0,30.01,South,190,5.0,6.0,96,-99.99,,,-99.99,,2013-03-05 14:21:00,
2013-03-05 08:31:00,60.0,58.0,30.01,South,190,5.0,6.0,96,-99.99,,,-99.99,,2013-03-05 14:31:00,
2013-03-05 08:41:00,60.0,58.0,30.01,South,190,5.0,6.0,96,-99.99,,,-99.99,,2013-03-05 14:41:00,
2013-03-05 08:52:00,60.0,58.0,30.01,South,190,5.0,6.0,96,-99.99,,,-99.99,,2013-03-05 14:52:00,
2013-03-05 09:00:00,64.0,59.0,30.07,WSW,250,11.0,14.0,82,-99.99,,,-99.99,,2013-03-05 15:00:00,
2013-03-05 09:21:00,64.0,59.0,30.07,WSW,250,11.0,14.0,82,-99.99,,,-99.99,,2013-03-05 15:21:00,
2013-03-05 09:31:00,64.0,59.0,30.07,WSW,250,11.0,14.0,82,-99.99,,,-99.99,,2013-03-05 15:31:00,
2013-03-05 09:42:00,64.0,59.0,30.07,WSW,250,11.0,14.0,82,-99.99,,,-99.99,,2013-03-05 15:42:00,
2013-03-05 09:51:00,64.0,59.0,30.07,WSW,250,11.0,14.0,82,-99.99,,,-99.99,,2013-03-05 15:51:00,
2013-03-05 10:00:00,62.0,58.0,30.06,SW,220,8.0,10.0,89,-99.99,,,-99.99,,2013-03-05 16:00:00,
2013-03-05 10:21:00,62.0,58.0,30.06,SW,220,8.0,10.0,89,-99.99,,,-99.99,,2013-03-05 16:21:00,
2013-03-05 10:31:00,62.0,58.0,30.06,SW,220,8.0,10.0,89,-99.99,,,-99.99,,2013-03-05 16:31:00,
2013-03-05 10:41:00,62.0,58.0,30.06,SW,220,8.0,10.0,89,-99.99,,,-99.99,,2013-03-05 16:41:00,
2013-03-05 10:51:00,62.0,58.0,30.06,SW,220,8.0,10.0,89,-99.99,,,-99.99,,2013-03-05 16:51:00,
2013-03-05 11:00:00,62.0,59.0,30.04,SSW,210,10.0,14.0,89,-99.99,,,-99.99,,2013-03-05 17:00:00,
2013-03-05 11:21:00,62.0,59.0,30.04,SSW,210,10.0,14.0,89,-99.99,,,-99.99,,2013-03-05 17:21:00,
2013-03-05 11:31:00,62.0,59.0,30.04,SSW,210,10.0,14.0,89,-99.99,,,-99.99,,2013-03-05 17:31:00,
2013-03-05 11:41:00,62.0,59.0,30.04,SSW,210,10.0,14.0,89,-99.99,,,-99.99,,2013-03-05 17:41:00,
2013-03-05 11:52:00,62.0,59.0,30.04,SSW,210,10.0,14.0,89,-99.99,,,-99.99,,2013-03-05 17:52:00,
2013-03-05 12:00:00,64.0,60.0,30.02,SSW,210,8.0,11.0,86,-99.99,,,-99.99,,2013-03-05 18:00:00,
2013-03-05 12:21:00,64.0,60.0,30.02,SSW,210,8.0,11.0,86,-99.99,,,-99.99,,2013-03-05 18:21:00,
2013-03-05 12:31:00,64.0,60.0,30.02,SSW,210,8.0,11.0,86,-99.99,,,-99.99,,2013-03-05 18:31:00,
2013-03-05 12:41:00,64.0,60.0,30.02,SSW,210,8.0,11.0,86,-99.99,,,-99.99,,2013-03-05 18:41:00,
2013-03-05 12:52:00,64.0,60.0,30.02,SSW,210,8.0,11.0,86,-99.99,,,-99.99,,2013-03-05 18:52:00,
2013-03-05 13:00:00,64.0,60.0,29.99,SW,220,18.0,23.0,87,-99.99,,,-99.99,,2013-03-05 19:00:00,
2013-03-05 13:21:00,64.0,60.0,29.99,SW,220,18.0,23.0,87,-99.99,,,-99.99,,2013-03-05 19:21:00,
2013-03-05 13:31:00,64.0,60.0,29.99,SW,220,18.0,23.0,87,-99.99,,,-99.99,,2013-03-05 19:31:00,
2013-03-05 13:41:00,64.0,60.0,29.99,SW,220,18.0,23.0,87,-99.99,,,-99.99,,2013-03-05 19:41:00,
2013-03-05 13:51:00,64.0,60.0,29.99,SW,220,18.0,23.0,87,-99.99,,,-99.99,,2013-03-05 19:51:00,
2013-03-05 14:00:00,64.0,61.0,29.97,SW,220,18.0,23.0,89,-99.99,,,-99.99,,2013-03-05 20:00:00,
2013-03-05 14:21:00,64.0,61.0,29.97,SW,220,18.0,23.0,89,-99.99,,,-99.99,,2013-03-05 20:21:00,
2013-03-05 14:31:00,64.0,61.0,29.97,SW,220,18.0,23.0,89,-99.99,,,-99.99,,2013-03-05 20:31:00,
2013-03-05 14:41:00,64.0,61.0,29.97,SW,220,18.0,23.0,89,-99.99,,,-99.99,,2013-03-05 20:41:00,
2013-03-05 14:52:00,64.0,61.0,29.97,SW,220,18.0,23.0,89,-99.99,,,-99.99,,2013-03-05 20:52:00,
2013-03-05 15:00:00,64.0,61.0,29.95,SW,220,21.0,24.0,88,-99.99,,,-99.99,,2013-03-05 21:00:00,
2013-03-05 15:21:00,64.0,61.0,29.95,SW,220,21.0,24.0,88,-99.99,,,-99.99,,2013-03-05 21:21:00,
2013-03-05 15:31:00,64.0,61.0,29.95,SW,220,21.0,24.0,88,-99.99,,,-99.99,,2013-03-05 21:31:00,
2013-03-05 15:41:00,64.0,61.0,29.95,SW,220,21.0,24.0,88,-99.99,,,-99.99,,2013-03-05 21:41:00,
2013-03-05 15:52:00,64.0,61.0,29.95,SW,220,21.0,24.0,88,-99.99,,,-99.99,,2013-03-05 21:52:00,
2013-03-05 16:00:00,65.0,61.0,29.95,SW,220,11.0,15.0,89,-99.99,,,-99.99,,2013-03-05 22:00:00,
2013-03-05 16:21:00,65.0,61.0,29.95,SW,220,11.0,15.0,89,-99.99,,,-99.99,,2013-03-05 22:21:00,
2013-03-05 16:31:00,65.0,61.0,29.95,SW,220,11.0,15.0,89,-99.99,,,-99.99,,2013-03-05 22:31:00,
2013-03-05 16:41:00,65.0,61.0,29.95,SW,220,11.0,15.0,89,-99.99,,,-99.99,,2013-03-05 22:41:00,
2013-03-05 16:51:00,65.0,61.0,29.95,SW,220,11.0,15.0,89,-99.99,,,-99.99,,2013-03-05 22:51:00,
2013-03-05 17:00:00,64.0,62.0,29.95,SW,230,15.0,20.0,92,-99.99,,,-99.99,,2013-03-05 23:00:00,
2013-03-05 17:21:00,64.0,62.0,29.95,SW,230,15.0,20.0,92,-99.99,,,-99.99,,2013-03-05 23:21:00,
2013-03-05 17:32:00,64.0,62.0,29.95,SW,230,15.0,20.0,92,-99.99,,,-99.99,,2013-03-05 23:32:00,
2013-03-05 17:41:00,64.0,62.0,29.95,SW,230,15.0,20.0,92,-99.99,,,-99.99,,2013-03-05 23:41:00,
2013-03-05 17:52:00,64.0,62.0,29.95,SW,230,15.0,20.0,92,-99.99,,,-99.99,,2013-03-05 23:52:00,
2013-03-05 18:00:00,64.0,61.0,29.99,West,270,9.0,13.0,90,-99.99,,,-99.99,,2013-03-06 00:00:00,
2013-03-05 18:21:00,64.0,61.0,29.99,West,270,9.0,13.0,90,-99.99,,,-99.99,,2013-03-06 00:21:00,
2013-03-05 18:31:00,64.0,61.0,29.99,West,270,9.0,13.0,90,-99.99,,,-99.99,,2013-03-06 00:31:00,
2013-03-05 18:41:00,64.0,61.0,29.99,West,270,9.0,13.0,90,-99.99,,,-99.99,,2013-03-06 00:41:00,
2013-03-05 18:51:00,64.0,61.0,29.99,West,270,9.0,13.0,90,-99.99,,,-99.99,,2013-03-06 00:51:00,
2013-03-05 20:00:00,61.0,46.0,30.05,NNW,330,21.0,23.0,57,-99.99,,,-99.99,,2013-03-06 02:00:00,
2013-03-05 20:41:00,61.0,46.0,30.05,NNW,330,21.0,23.0,57,-99.99,,,-99.99,,2013-03-06 02:41:00,
2013-03-05 20:51:00,61.0,46.0,30.05,NNW,330,21.0,23.0,57,-99.99,,,-99.99,,2013-03-06 02:51:00,
2013-03-05 21:00:00,58.0,46.0,30.09,NNW,340,18.0,20.0,62,-99.99,,,-99.99,,2013-03-06 03:00:00,
2013-03-05 21:21:00,58.0,46.0,30.09,NNW,340,18.0,20.0,62,-99.99,,,-99.99,,2013-03-06 03:21:00,
2013-03-05 21:31:00,58.0,46.0,30.09,NNW,340,18.0,20.0,62,-99.99,,,-99.99,,2013-03-06 03:31:00,
2013-03-05 21:41:00,58.0,46.0,30.09,NNW,340,18.0,20.0,62,-99.99,,,-99.99,,2013-03-06 03:41:00,
2013-03-05 21:52:00,58.0,46.0,30.09,NNW,340,18.0,20.0,62,-99.99,,,-99.99,,2013-03-06 03:52:00,
2013-03-05 22:00:00,56.0,41.0,30.13,NNW,340,22.0,24.0,55,-99.99,,,-99.99,,2013-03-06 04:00:00,
2013-03-05 22:21:00,56.0,41.0,30.13,NNW,340,22.0,24.0,55,-99.99,,,-99.99,,2013-03-06 04:21:00,
2013-03-05 22:31:00,56.0,41.0,30.13,NNW,340,22.0,24.0,55,-99.99,,,-99.99,,2013-03-06 04:31:00,
2013-03-05 22:41:00,56.0,41.0,30.13,NNW,340,22.0,24.0,55,-99.99,,,-99.99,,2013-03-06 04:41:00,
2013-03-05 22:51:00,56.0,41.0,30.13,NNW,340,22.0,24.0,55,-99.99,,,-99.99,,2013-03-06 04:51:00,
2013-03-05 23:00:00,54.0,44.0,30.14,North,350,17.0,20.0,66,-99.99,,,-99.99,,2013-03-06 05:00:00,
2013-03-05 23:22:00,54.0,44.0,30.14,North,350,17.0,20.0,66,-99.99,,,-99.99,,2013-03-06 05:22:00,
2013-03-05 23:32:00,54.0,44.0,30.14,North,350,17.0,20.0,66,-99.99,,,-99.99,,2013-03-06 05:32:00,
2013-03-05 23:41:00,54.0,44.0,30.14,North,350,17.0,20.0,66,-99.99,,,-99.99,,2013-03-06 05:41:00,
2013-03-05 23:52:00,54.0,44.0,30.14,North,350,17.0,20.0,66,-99.99,,,-99.99,,2013-03-06 05:52:00,